Time;durP1;ratioP1;P1;durP2;ratioP2;P2;SDS_P1;SDS_P2;PMS_P1;PMS_P2;Temp;Humidity;BMP_temperature;BMP_pressure;BME280_temperature;BME280_humidity;BME280_pressure;Samples;Min_cycle;Max_cycle;Signal;HPM_P1;HPM_P2
2022/07/16 00:01:23;;;;;;;5.13;2.50;;;17.30;53.30;;;;;;5010983;28;20038;-80
2022/07/16 00:03:54;;;;;;;3.83;2.20;;;17.30;53.20;;;;;;5010961;28;20477;-80
2022/07/16 00:06:20;;;;;;;3.25;2.47;;;17.20;53.50;;;;;;5010984;28;20057;-80
2022/07/16 00:08:46;;;;;;;4.60;2.58;;;17.20;53.40;;;;;;5010808;28;20070;-80
2022/07/16 00:11:12;;;;;;;3.22;2.55;;;17.10;54.10;;;;;;5011209;28;20385;-81
2022/07/16 00:13:39;;;;;;;3.38;2.15;;;17.00;54.10;;;;;;5010944;28;20112;-80
2022/07/16 00:16:07;;;;;;;3.65;2.63;;;17.10;54.10;;;;;;5012424;28;20065;-81
2022/07/16 00:21:17;;;;;;;5.75;2.92;;;16.90;54.10;;;;;;5011157;28;20118;-75
2022/07/16 00:23:43;;;;;;;5.55;2.58;;;16.80;54.90;;;;;;5010976;28;20470;-76
2022/07/16 00:26:08;;;;;;;2.85;2.25;;;16.80;54.90;;;;;;5010419;28;20161;-77
2022/07/16 00:28:34;;;;;;;4.47;2.25;;;16.90;54.70;;;;;;5010953;28;20045;-75
2022/07/16 00:30:59;;;;;;;3.97;2.58;;;16.90;54.70;;;;;;5010975;28;20021;-75
2022/07/16 00:33:25;;;;;;;4.90;2.58;;;16.90;54.30;;;;;;5010257;28;20576;-76
2022/07/16 00:35:50;;;;;;;5.88;2.85;;;16.80;54.40;;;;;;5010657;28;20022;-75
2022/07/16 00:38:16;;;;;;;4.82;2.75;;;16.80;54.30;;;;;;5010683;28;20030;-76
2022/07/16 00:40:41;;;;;;;5.22;2.83;;;16.70;54.70;;;;;;5010277;28;20022;-76
2022/07/16 00:43:12;;;;;;;4.57;2.53;;;16.70;54.70;;;;;;5010501;28;20033;-80
2022/07/16 00:45:38;;;;;;;4.10;2.80;;;16.70;55.40;;;;;;5010646;28;20351;-80
2022/07/16 00:48:04;;;;;;;4.43;2.80;;;16.70;54.80;;;;;;5010401;28;20026;-80
2022/07/16 00:50:30;;;;;;;4.63;2.97;;;16.60;55.10;;;;;;5009926;28;20478;-80
2022/07/16 00:52:58;;;;;;;6.00;2.97;;;16.50;55.30;;;;;;5010146;28;20065;-79
2022/07/16 00:55:28;;;;;;;6.28;2.50;;;16.40;55.30;;;;;;5010292;28;20030;-79
2022/07/16 00:57:58;;;;;;;4.93;2.85;;;16.20;56.10;;;;;;5010513;28;20049;-80
2022/07/16 01:00:24;;;;;;;4.43;2.70;;;16.20;56.00;;;;;;5010370;28;20026;-81
2022/07/16 01:02:50;;;;;;;6.38;2.65;;;16.30;56.10;;;;;;5010227;28;20149;-80
2022/07/16 01:05:17;;;;;;;5.50;2.55;;;16.30;56.00;;;;;;5010259;28;20026;-80
2022/07/16 01:07:43;;;;;;;5.93;2.78;;;16.40;55.80;;;;;;5010571;28;20034;-80
2022/07/16 01:10:09;;;;;;;5.18;2.42;;;16.40;55.80;;;;;;5010863;28;20022;-81
2022/07/16 01:12:36;;;;;;;6.65;3.05;;;16.30;55.90;;;;;;5010574;28;20018;-81
2022/07/16 01:15:03;;;;;;;4.20;3.00;;;16.10;56.40;;;;;;5015415;28;20033;-80
2022/07/16 01:17:28;;;;;;;3.15;2.70;;;16.00;56.80;;;;;;5010322;28;20022;-80
2022/07/16 01:19:54;;;;;;;5.35;3.28;;;16.00;57.00;;;;;;5009970;28;20033;-77
2022/07/16 01:22:23;;;;;;;6.03;3.20;;;15.90;57.20;;;;;;4993653;28;20487;-76
2022/07/16 01:24:49;;;;;;;3.20;2.88;;;15.80;57.30;;;;;;5010149;28;20049;-75
2022/07/16 01:27:16;;;;;;;6.55;2.80;;;15.70;57.70;;;;;;5010038;28;20374;-76
2022/07/16 01:29:42;;;;;;;4.10;3.13;;;15.50;58.10;;;;;;4993411;28;20547;-79
2022/07/16 01:32:07;;;;;;;4.85;3.00;;;15.40;58.60;;;;;;5009982;28;20033;-79
2022/07/16 01:34:33;;;;;;;6.07;3.47;;;15.40;58.50;;;;;;5009803;28;20371;-76
2022/07/16 01:37:03;;;;;;;6.95;3.25;;;15.40;58.70;;;;;;4993432;28;20072;-76
2022/07/16 01:39:30;;;;;;;3.45;2.92;;;15.20;59.90;;;;;;5009915;28;20057;-76
2022/07/16 01:41:58;;;;;;;4.47;3.17;;;15.30;59.20;;;;;;5009166;28;20573;-76
2022/07/16 01:44:26;;;;;;;4.72;2.90;;;15.20;59.40;;;;;;5009717;28;20026;-76
2022/07/16 01:46:53;;;;;;;7.05;2.95;;;15.10;59.70;;;;;;5009463;28;20032;-76
2022/07/16 01:49:19;;;;;;;4.10;2.90;;;15.10;60.00;;;;;;5009750;28;20022;-77
2022/07/16 01:51:45;;;;;;;8.60;3.13;;;15.20;59.70;;;;;;5009514;28;20029;-77
2022/07/16 01:54:10;;;;;;;8.00;3.00;;;15.30;59.40;;;;;;5009403;28;20026;-77
2022/07/16 01:56:37;;;;;;;4.22;3.00;;;15.40;58.80;;;;;;5009595;28;20028;-76
2022/07/16 01:59:02;;;;;;;4.07;2.92;;;15.40;58.70;;;;;;5008695;28;20061;-77
2022/07/16 02:01:28;;;;;;;6.15;3.72;;;15.60;58.50;;;;;;5008998;28;20060;-76
2022/07/16 02:03:54;;;;;;;5.28;3.40;;;15.60;58.00;;;;;;5009403;28;20022;-76
2022/07/16 02:06:19;;;;;;;8.25;3.83;;;15.50;59.00;;;;;;5009376;28;20074;-77
2022/07/16 02:08:45;;;;;;;6.45;3.30;;;15.50;58.40;;;;;;5009178;28;20122;-76
2022/07/16 02:11:11;;;;;;;5.28;2.97;;;15.50;58.30;;;;;;5009149;28;20487;-76
2022/07/16 02:13:37;;;;;;;6.32;3.13;;;15.50;58.30;;;;;;5009191;28;20026;-77
2022/07/16 02:16:03;;;;;;;3.15;2.75;;;15.50;58.40;;;;;;5009185;28;20026;-76
2022/07/16 02:18:29;;;;;;;6.28;3.00;;;15.50;58.40;;;;;;5009167;28;20033;-76
2022/07/16 02:20:54;;;;;;;6.32;3.45;;;15.50;58.10;;;;;;4992953;28;20128;-75
2022/07/16 02:23:21;;;;;;;7.22;3.03;;;15.50;58.00;;;;;;5008788;28;20026;-74
2022/07/16 02:25:47;;;;;;;5.47;2.80;;;15.50;58.00;;;;;;5008823;28;20022;-74
2022/07/16 02:28:13;;;;;;;5.47;2.97;;;15.40;58.50;;;;;;5010097;28;20026;-74
2022/07/16 02:30:44;;;;;;;5.47;2.95;;;15.40;58.40;;;;;;5009012;28;20028;-74
2022/07/16 02:33:14;;;;;;;6.60;3.42;;;15.30;58.50;;;;;;5008849;28;20486;-75
2022/07/16 02:35:40;;;;;;;4.45;3.10;;;15.40;58.50;;;;;;5009126;28;20439;-75
2022/07/16 02:38:06;;;;;;;4.32;3.00;;;15.40;58.40;;;;;;5008739;28;20060;-75
2022/07/16 02:40:33;;;;;;;4.28;2.80;;;15.40;58.40;;;;;;5008611;28;20025;-76
2022/07/16 02:43:03;;;;;;;3.40;3.00;;;15.40;58.40;;;;;;5008936;28;20026;-75
2022/07/16 02:45:29;;;;;;;4.60;3.13;;;15.40;58.40;;;;;;5008749;28;20041;-76
2022/07/16 02:47:55;;;;;;;6.70;2.95;;;15.40;58.30;;;;;;5009004;28;20030;-76
2022/07/16 02:50:21;;;;;;;4.97;3.30;;;15.40;58.60;;;;;;5008808;28;20492;-75
2022/07/16 02:52:48;;;;;;;7.00;3.42;;;15.40;58.50;;;;;;5008472;28;20018;-77
2022/07/16 02:55:14;;;;;;;7.82;3.22;;;15.30;58.60;;;;;;5008835;28;20026;-76
2022/07/16 02:57:40;;;;;;;5.78;3.78;;;15.20;58.70;;;;;;5008716;28;20022;-76
2022/07/16 03:00:08;;;;;;;5.85;3.35;;;15.10;59.10;;;;;;5008628;28;20056;-77
2022/07/16 03:02:34;;;;;;;4.10;3.22;;;15.10;59.00;;;;;;5008629;28;20034;-77
2022/07/16 03:05:00;;;;;;;6.18;3.05;;;15.10;59.30;;;;;;5008491;28;20030;-77
2022/07/16 03:07:25;;;;;;;3.65;3.03;;;15.00;59.30;;;;;;5008421;28;20091;-77
2022/07/16 03:09:51;;;;;;;5.00;2.97;;;15.00;59.50;;;;;;5008104;28;20022;-75
2022/07/16 03:12:18;;;;;;;6.88;3.05;;;15.00;59.30;;;;;;5012847;28;20417;-76
2022/07/16 03:14:44;;;;;;;5.43;3.42;;;15.00;59.40;;;;;;5012081;28;20026;-77
2022/07/16 03:17:10;;;;;;;5.68;3.88;;;14.90;59.80;;;;;;5011332;28;20109;-75
2022/07/16 03:19:36;;;;;;;4.20;3.25;;;14.60;60.70;;;;;;5011957;28;20053;-79
2022/07/16 03:22:02;;;;;;;5.25;3.15;;;14.50;61.30;;;;;;5011833;28;20040;-80
2022/07/16 03:24:28;;;;;;;6.13;3.58;;;14.40;61.90;;;;;;5011770;28;20405;-80
2022/07/16 03:26:54;;;;;;;6.50;3.67;;;14.40;62.10;;;;;;5011451;28;20036;-80
2022/07/16 03:29:19;;;;;;;9.45;4.18;;;14.40;61.80;;;;;;5011796;28;20053;-79
2022/07/16 03:31:45;;;;;;;7.07;4.88;;;14.30;61.70;;;;;;5011750;28;20033;-80
2022/07/16 03:34:10;;;;;;;13.32;7.40;;;14.30;62.00;;;;;;5011633;28;20197;-80
2022/07/16 03:36:36;;;;;;;19.15;10.30;;;14.30;62.40;;;;;;5011412;28;20433;-80
2022/07/16 03:39:05;;;;;;;27.33;16.25;;;14.10;63.00;;;;;;5012757;28;20029;-79
2022/07/16 03:41:32;;;;;;;26.55;15.50;;;14.10;63.20;;;;;;5011246;28;20034;-80
2022/07/16 03:43:59;;;;;;;20.40;10.07;;;14.20;62.90;;;;;;5012458;28;20363;-80
2022/07/16 03:46:25;;;;;;;15.23;10.48;;;14.30;62.80;;;;;;5011681;28;20026;-81
2022/07/16 03:48:51;;;;;;;8.30;6.32;;;14.30;62.60;;;;;;5011040;28;20249;-78
2022/07/16 03:51:17;;;;;;;9.00;4.68;;;14.30;62.30;;;;;;5011294;28;20056;-80
2022/07/16 03:53:43;;;;;;;5.38;4.30;;;14.20;62.50;;;;;;5011454;28;20466;-80
2022/07/16 03:56:09;;;;;;;5.28;4.30;;;14.20;63.00;;;;;;5010652;28;20113;-80
2022/07/16 03:58:36;;;;;;;5.53;3.75;;;14.20;63.00;;;;;;5011418;28;20030;-80
2022/07/16 04:01:01;;;;;;;7.97;3.97;;;14.20;62.90;;;;;;5011112;28;20034;-80
2022/07/16 04:03:27;;;;;;;9.98;4.55;;;14.30;62.80;;;;;;5011328;28;20473;-81
2022/07/16 04:05:53;;;;;;;4.05;3.63;;;14.20;62.80;;;;;;4994820;28;20038;-81
2022/07/16 04:08:18;;;;;;;5.30;3.67;;;14.20;63.00;;;;;;5010918;28;20026;-79
2022/07/16 04:10:44;;;;;;;6.25;3.40;;;14.10;63.10;;;;;;5011160;28;20112;-80
2022/07/16 04:13:10;;;;;;;5.25;3.72;;;14.10;63.10;;;;;;5010946;28;20029;-81
2022/07/16 04:15:36;;;;;;;4.82;3.42;;;14.20;63.20;;;;;;5012343;28;20174;-79
2022/07/16 04:18:01;;;;;;;8.75;3.78;;;14.20;63.10;;;;;;5011113;28;20491;-81
2022/07/16 04:20:27;;;;;;;5.82;3.35;;;14.30;62.90;;;;;;5010891;28;20071;-80
2022/07/16 04:22:54;;;;;;;6.03;3.60;;;14.30;62.70;;;;;;5010371;28;20045;-80
2022/07/16 04:25:20;;;;;;;5.75;3.55;;;14.40;62.00;;;;;;5010896;28;20033;-80
2022/07/16 04:27:46;;;;;;;6.60;3.53;;;14.50;61.80;;;;;;5010740;28;20626;-79
2022/07/16 04:30:12;;;;;;;7.28;4.00;;;14.60;61.60;;;;;;5010397;28;20113;-81
2022/07/16 04:32:40;;;;;;;7.63;3.58;;;14.50;61.80;;;;;;5010335;28;20018;-80
2022/07/16 04:35:07;;;;;;;7.32;3.60;;;14.50;61.80;;;;;;5010848;28;20034;-78
2022/07/16 04:37:33;;;;;;;6.63;4.15;;;14.60;61.80;;;;;;5010478;28;20386;-77
2022/07/16 04:39:58;;;;;;;4.25;3.35;;;14.60;61.80;;;;;;5010910;28;20026;-79
2022/07/16 04:42:24;;;;;;;7.35;3.78;;;14.50;61.50;;;;;;5010448;28;20324;-79
2022/07/16 04:44:49;;;;;;;5.20;3.53;;;14.50;61.90;;;;;;5010172;28;20026;-77
2022/07/16 04:47:15;;;;;;;8.45;4.15;;;14.60;61.50;;;;;;5009962;28;20543;-77
2022/07/16 04:49:41;;;;;;;4.82;3.45;;;14.80;61.30;;;;;;5010225;28;20022;-77
2022/07/16 04:52:07;;;;;;;7.63;3.97;;;14.80;60.80;;;;;;5010031;28;20040;-78
2022/07/16 04:54:33;;;;;;;4.78;3.50;;;14.90;60.40;;;;;;5010253;28;20062;-77
2022/07/16 04:56:59;;;;;;;4.72;3.75;;;15.00;60.20;;;;;;5010372;28;20030;-77
2022/07/16 04:59:25;;;;;;;4.88;3.50;;;14.90;60.30;;;;;;5010227;28;20018;-76
2022/07/16 05:01:50;;;;;;;4.95;3.35;;;14.90;60.60;;;;;;5010437;28;20034;-78
2022/07/16 05:04:16;;;;;;;4.68;3.38;;;15.00;60.30;;;;;;4993829;28;20101;-79
2022/07/16 05:06:42;;;;;;;6.72;3.70;;;14.90;60.30;;;;;;5010270;28;20378;-78
2022/07/16 05:09:07;;;;;;;6.47;3.85;;;14.90;60.20;;;;;;5009749;28;20407;-78
2022/07/16 05:11:33;;;;;;;10.05;4.10;;;14.90;60.10;;;;;;5009711;28;20022;-77
2022/07/16 05:13:59;;;;;;;7.60;3.97;;;14.90;60.40;;;;;;5010226;28;20030;-79
2022/07/16 05:16:24;;;;;;;6.40;3.88;;;14.80;60.50;;;;;;5009717;28;20474;-75
2022/07/16 05:18:50;;;;;;;6.97;4.15;;;14.80;60.90;;;;;;5010175;28;20379;-78
2022/07/16 05:21:16;;;;;;;8.20;3.70;;;14.90;60.80;;;;;;5009846;28;20034;-75
2022/07/16 05:23:42;;;;;;;5.93;3.35;;;15.10;60.40;;;;;;5009683;28;20041;-75
2022/07/16 05:26:07;;;;;;;4.45;3.28;;;15.30;60.00;;;;;;5009885;28;20029;-79
2022/07/16 05:28:33;;;;;;;6.30;3.78;;;15.50;59.30;;;;;;5009514;28;20030;-80
2022/07/16 05:31:00;;;;;;;8.23;4.53;;;15.60;58.70;;;;;;5009411;28;20030;-80
2022/07/16 05:33:26;;;;;;;5.10;3.45;;;15.70;58.40;;;;;;5008961;28;20046;-77
2022/07/16 05:35:51;;;;;;;9.25;3.53;;;15.70;58.40;;;;;;5008681;28;20112;-79
2022/07/16 05:38:18;;;;;;;8.55;3.55;;;15.80;58.20;;;;;;5009115;28;20022;-79
2022/07/16 05:40:44;;;;;;;9.00;3.80;;;15.90;58.00;;;;;;5009403;28;20026;-77
2022/07/16 05:43:10;;;;;;;9.32;3.40;;;16.10;58.20;;;;;;5009504;28;20030;-79
2022/07/16 05:45:35;;;;;;;6.15;3.40;;;16.30;56.90;;;;;;5009655;28;20018;-80
2022/07/16 05:48:01;;;;;;;7.32;4.15;;;16.40;56.60;;;;;;5009628;28;20171;-80
2022/07/16 05:50:27;;;;;;;8.23;3.55;;;16.50;56.70;;;;;;5009226;28;20034;-79
2022/07/16 05:52:52;;;;;;;6.25;3.10;;;16.50;57.20;;;;;;4992917;28;20030;-79
2022/07/16 05:55:18;;;;;;;4.30;3.00;;;16.70;56.40;;;;;;5009271;28;20029;-80
2022/07/16 05:57:43;;;;;;;8.30;3.42;;;16.90;56.10;;;;;;5009621;28;20021;-79
2022/07/16 06:00:11;;;;;;;4.43;2.72;;;17.20;55.50;;;;;;5009631;28;20026;-78
2022/07/16 06:02:38;;;;;;;4.22;2.50;;;17.30;55.00;;;;;;5009066;28;20040;-78
2022/07/16 06:05:04;;;;;;;5.47;3.13;;;17.50;54.60;;;;;;5009313;28;20048;-77
2022/07/16 06:07:29;;;;;;;6.40;3.42;;;17.70;54.00;;;;;;4992828;28;20450;-76
2022/07/16 06:09:55;;;;;;;5.82;3.17;;;17.80;53.10;;;;;;5009252;28;20402;-75
2022/07/16 06:12:21;;;;;;;7.35;3.17;;;17.90;52.80;;;;;;5009279;28;20060;-76
2022/07/16 06:14:46;;;;;;;5.88;3.65;;;18.00;52.60;;;;;;5009027;28;20028;-76
2022/07/16 06:17:13;;;;;;;6.10;3.67;;;18.20;52.30;;;;;;5008944;28;20021;-75
2022/07/16 06:19:43;;;;;;;8.50;3.20;;;18.30;51.80;;;;;;5008604;28;20042;-75
2022/07/16 06:22:10;;;;;;;7.55;3.28;;;18.30;51.80;;;;;;5009042;28;20033;-75
2022/07/16 06:24:36;;;;;;;4.68;3.17;;;18.40;51.40;;;;;;5008730;28;20060;-75
2022/07/16 06:27:02;;;;;;;7.13;3.33;;;18.50;51.20;;;;;;5008949;28;20026;-77
2022/07/16 06:29:29;;;;;;;7.10;3.47;;;18.60;51.00;;;;;;5008682;28;20049;-74
2022/07/16 06:31:55;;;;;;;8.13;3.65;;;18.60;50.80;;;;;;5008819;28;20025;-74
2022/07/16 06:34:20;;;;;;;5.40;3.00;;;18.70;50.50;;;;;;5008748;28;20046;-77
2022/07/16 06:36:46;;;;;;;7.68;3.33;;;18.90;50.10;;;;;;5009000;28;20025;-76
2022/07/16 06:39:12;;;;;;;3.58;2.90;;;18.90;49.20;;;;;;5008833;28;20360;-75
2022/07/16 06:41:38;;;;;;;5.45;3.30;;;19.00;49.40;;;;;;5008572;28;20034;-76
2022/07/16 06:44:05;;;;;;;8.07;2.92;;;19.10;49.20;;;;;;5009712;28;20026;-75
2022/07/16 06:46:30;;;;;;;8.95;3.50;;;19.20;49.10;;;;;;5013083;28;20156;-75
2022/07/16 06:48:56;;;;;;;7.72;3.63;;;19.40;48.50;;;;;;5014946;28;20122;-76
2022/07/16 06:51:22;;;;;;;5.25;3.15;;;19.50;48.00;;;;;;5015172;28;20018;-75
2022/07/16 06:53:48;;;;;;;7.97;3.42;;;19.40;47.70;;;;;;5015131;28;20025;-75
2022/07/16 06:56:13;;;;;;;11.38;3.78;;;19.50;47.30;;;;;;5014931;28;20467;-75
2022/07/16 06:58:39;;;;;;;8.82;3.22;;;19.70;47.10;;;;;;5015158;28;20022;-74
2022/07/16 07:01:05;;;;;;;7.68;3.38;;;20.00;46.10;;;;;;5016396;28;20034;-76
2022/07/16 07:03:31;;;;;;;7.22;3.13;;;20.20;45.10;;;;;;5014866;28;20030;-75
2022/07/16 07:05:57;;;;;;;12.30;2.85;;;20.40;43.90;;;;;;5015031;28;20349;-76
2022/07/16 07:08:22;;;;;;;8.32;3.55;;;20.30;43.50;;;;;;5014911;28;20029;-77
2022/07/16 07:10:48;;;;;;;6.85;3.33;;;20.10;44.90;;;;;;5016839;28;20070;-77
2022/07/16 07:13:13;;;;;;;7.15;3.20;;;20.00;45.20;;;;;;5014855;28;20401;-76
2022/07/16 07:15:39;;;;;;;6.90;3.13;;;20.00;45.40;;;;;;5014404;28;20034;-76
2022/07/16 07:18:06;;;;;;;6.63;3.28;;;20.00;45.60;;;;;;5014532;28;20847;-76
2022/07/16 07:20:32;;;;;;;10.38;3.63;;;20.10;45.30;;;;;;5014946;28;20123;-77
2022/07/16 07:22:57;;;;;;;6.40;3.25;;;19.90;45.90;;;;;;5014695;28;20069;-77
2022/07/16 07:25:24;;;;;;;10.73;3.72;;;19.90;46.30;;;;;;5015760;28;20022;-77
2022/07/16 07:27:49;;;;;;;7.20;3.60;;;19.60;45.80;;;;;;5014521;28;20026;-76
2022/07/16 07:30:15;;;;;;;8.48;3.53;;;19.60;46.90;;;;;;5014689;28;20116;-77
2022/07/16 07:32:41;;;;;;;7.07;3.20;;;19.60;47.30;;;;;;5015126;28;20022;-77
2022/07/16 07:35:07;;;;;;;5.35;3.05;;;19.90;46.70;;;;;;4999080;28;20500;-77
2022/07/16 07:37:32;;;;;;;6.70;2.80;;;20.30;45.50;;;;;;5015299;28;20385;-77
2022/07/16 07:39:58;;;;;;;8.05;3.22;;;20.60;44.40;;;;;;5015647;28;20116;-77
2022/07/16 07:42:23;;;;;;;3.78;2.30;;;21.00;43.00;;;;;;5015339;28;20506;-77
2022/07/16 07:44:49;;;;;;;7.53;3.22;;;21.30;42.40;;;;;;5015087;28;20171;-77
2022/07/16 07:47:15;;;;;;;5.35;3.00;;;21.40;41.90;;;;;;5014761;28;20071;-77
2022/07/16 07:49:40;;;;;;;8.10;3.03;;;21.20;41.80;;;;;;4998274;28;20414;-77
2022/07/16 07:52:08;;;;;;;10.68;3.20;;;21.20;42.00;;;;;;5014187;28;20042;-77
2022/07/16 07:54:35;;;;;;;4.35;2.80;;;21.00;43.20;;;;;;5015748;28;20033;-76
2022/07/16 07:57:01;;;;;;;7.32;3.80;;;21.10;42.60;;;;;;5013536;28;20030;-77
2022/07/16 07:59:26;;;;;;;5.22;2.92;;;21.40;41.90;;;;;;5011016;28;20045;-76
2022/07/16 08:01:52;;;;;;;7.53;3.88;;;21.60;40.60;;;;;;5011474;28;20045;-77
2022/07/16 08:04:18;;;;;;;9.90;3.42;;;21.60;40.10;;;;;;5012774;28;20018;-77
2022/07/16 08:06:44;;;;;;;82.95;8.40;;;21.50;40.30;;;;;;4997312;28;20044;-77
2022/07/16 08:09:09;;;;;;;10.57;3.92;;;21.40;40.70;;;;;;5030047;28;20022;-76
2022/07/16 08:11:35;;;;;;;5.70;3.03;;;21.40;41.30;;;;;;5034588;28;20576;-76
2022/07/16 08:14:00;;;;;;;10.35;3.53;;;21.60;40.70;;;;;;5034389;28;20025;-77
2022/07/16 08:16:26;;;;;;;7.45;2.85;;;21.80;39.80;;;;;;5032864;28;20034;-74
2022/07/16 08:18:52;;;;;;;5.63;3.20;;;21.70;39.50;;;;;;5032067;28;20073;-75
2022/07/16 08:21:18;;;;;;;8.23;2.78;;;21.80;39.30;;;;;;5028126;28;20034;-75
2022/07/16 08:26:28;;;;;;;8.95;3.72;;;22.10;38.80;;;;;;5021510;28;20070;-74
2022/07/16 08:28:53;;;;;;;11.52;3.28;;;22.20;38.90;;;;;;5021387;28;20025;-75
2022/07/16 08:31:19;;;;;;;8.50;3.30;;;22.10;38.40;;;;;;5018190;28;20030;-75
2022/07/16 08:33:44;;;;;;;6.00;2.80;;;22.20;38.00;;;;;;5016715;28;20042;-75
2022/07/16 08:36:10;;;;;;;8.48;3.53;;;22.10;37.10;;;;;;5019375;28;20125;-74
2022/07/16 08:38:35;;;;;;;6.75;2.72;;;22.10;37.50;;;;;;5013237;28;20018;-75
2022/07/16 08:41:02;;;;;;;4.78;2.50;;;21.70;37.40;;;;;;5011580;28;20090;-76
2022/07/16 08:43:30;;;;;;;7.35;2.80;;;21.80;37.50;;;;;;5011742;28;20442;-76
2022/07/16 08:45:56;;;;;;;5.65;2.72;;;22.00;37.80;;;;;;5011257;28;20535;-75
2022/07/16 08:48:24;;;;;;;9.63;3.40;;;22.20;37.60;;;;;;5010917;28;20061;-75
2022/07/16 08:50:52;;;;;;;8.35;3.25;;;22.40;36.60;;;;;;5011104;28;20471;-75
2022/07/16 08:53:22;;;;;;;6.68;3.08;;;22.40;36.50;;;;;;5011028;28;20494;-75
2022/07/16 08:55:52;;;;;;;6.53;2.88;;;22.50;36.70;;;;;;5010720;28;20022;-75
2022/07/16 08:58:18;;;;;;;3.95;2.47;;;22.70;36.40;;;;;;5010530;28;20033;-75
2022/07/16 09:00:45;;;;;;;6.13;2.95;;;22.90;35.90;;;;;;5010203;28;20026;-75
2022/07/16 09:03:13;;;;;;;5.97;3.10;;;22.90;35.10;;;;;;5009814;28;20034;-75
2022/07/16 09:05:39;;;;;;;5.05;3.00;;;22.90;35.20;;;;;;5010403;28;20383;-74
2022/07/16 09:08:05;;;;;;;7.32;2.95;;;22.80;35.70;;;;;;5009385;28;20048;-75
2022/07/16 09:10:36;;;;;;;7.22;3.92;;;22.80;36.50;;;;;;5010024;28;20108;-76
2022/07/16 09:13:02;;;;;;;4.70;3.17;;;23.00;36.00;;;;;;5010239;28;20018;-76
2022/07/16 09:15:40;;;;;;;7.60;2.83;;;23.10;35.40;;;;;;5009819;28;20026;-75
2022/07/16 09:18:20;;;;;;;5.82;2.85;;;23.00;35.50;;;;;;5009920;28;20029;-76
2022/07/16 09:20:58;;;;;;;5.22;2.85;;;23.00;36.60;;;;;;5010301;28;20095;-76
2022/07/16 09:23:24;;;;;;;5.88;2.70;;;22.90;34.50;;;;;;5009852;28;20037;-76
2022/07/16 09:25:57;;;;;;;6.70;2.60;;;23.00;34.60;;;;;;5009990;28;20533;-75
2022/07/16 09:28:25;;;;;;;3.90;2.88;;;23.00;34.50;;;;;;5009596;28;20022;-75
2022/07/16 09:30:52;;;;;;;3.70;2.72;;;23.10;33.20;;;;;;5009916;28;20030;-75
2022/07/16 09:33:20;;;;;;;10.90;2.70;;;23.10;34.00;;;;;;5009636;28;20627;-75
2022/07/16 09:35:47;;;;;;;6.53;2.25;;;23.10;33.80;;;;;;5009225;28;20088;-76
2022/07/16 09:38:13;;;;;;;6.03;2.70;;;23.00;33.10;;;;;;5009473;28;20078;-75
2022/07/16 09:40:47;;;;;;;6.25;2.17;;;23.00;33.50;;;;;;5009455;28;20018;-76
2022/07/16 09:43:12;;;;;;;8.13;3.08;;;22.80;32.90;;;;;;5009257;28;20041;-77
2022/07/16 09:45:43;;;;;;;7.80;2.53;;;22.90;33.30;;;;;;5009121;28;20014;-77
2022/07/16 09:48:25;;;;;;;3.53;2.47;;;23.20;34.20;;;;;;5009792;28;20026;-78
2022/07/16 09:50:52;;;;;;;4.13;2.58;;;23.50;32.60;;;;;;5009545;28;20025;-77
2022/07/16 09:53:21;;;;;;;3.85;2.70;;;23.60;32.10;;;;;;5009203;28;20065;-74
2022/07/16 09:56:17;;;;;;;5.85;2.28;;;23.70;31.10;;;;;;5008819;28;20057;-78
2022/07/16 09:58:51;;;;;;;3.67;2.30;;;23.70;29.90;;;;;;5009948;28;20030;-75
2022/07/16 10:01:18;;;;;;;7.30;2.65;;;23.60;29.80;;;;;;5009334;28;20033;-75
2022/07/16 10:03:45;;;;;;;6.63;2.17;;;23.70;30.80;;;;;;5009547;28;20030;-74
2022/07/16 10:06:11;;;;;;;3.65;2.13;;;23.70;30.40;;;;;;5008681;28;20083;-76
2022/07/16 10:08:38;;;;;;;3.42;2.13;;;23.90;30.50;;;;;;5009447;28;20435;-75
2022/07/16 10:11:04;;;;;;;3.53;1.88;;;24.10;30.20;;;;;;5009080;28;20094;-75
2022/07/16 10:13:32;;;;;;;5.07;2.40;;;24.10;26.60;;;;;;5009173;28;20494;-75
2022/07/16 10:15:58;;;;;;;7.88;2.05;;;24.30;26.90;;;;;;5010571;28;20030;-75
2022/07/16 10:18:35;;;;;;;3.47;1.90;;;24.30;24.80;;;;;;5009109;28;20037;-76
2022/07/16 10:21:06;;;;;;;5.00;2.55;;;24.40;26.70;;;;;;5007710;28;20491;-75
2022/07/16 10:23:33;;;;;;;5.60;2.40;;;24.30;28.50;;;;;;5008615;28;20033;-75
2022/07/16 10:26:04;;;;;;;4.82;2.50;;;24.40;28.80;;;;;;5008887;28;20028;-76
2022/07/16 10:28:42;;;;;;;8.07;2.63;;;24.30;26.40;;;;;;4992517;28;20069;-77
2022/07/16 10:31:36;;;;;;;4.85;2.15;;;24.40;27.50;;;;;;5008734;28;20105;-76
2022/07/16 10:34:16;;;;;;;4.05;2.20;;;23.90;28.00;;;;;;5008056;28;20084;-76
2022/07/16 10:36:52;;;;;;;4.82;2.58;;;24.10;29.50;;;;;;5008401;28;20030;-76
2022/07/16 10:39:19;;;;;;;3.38;2.10;;;24.40;27.70;;;;;;5008319;28;20040;-76
2022/07/16 10:42:00;;;;;;;4.38;2.38;;;24.80;26.50;;;;;;5008336;28;20026;-74
2022/07/16 10:44:49;;;;;;;3.72;2.55;;;25.00;26.60;;;;;;5009049;28;20029;-76
2022/07/16 10:47:16;;;;;;;3.67;2.55;;;24.60;27.50;;;;;;5008781;28;20026;-75
2022/07/16 10:49:42;;;;;;;8.07;3.05;;;24.50;28.80;;;;;;5008790;28;20163;-75
2022/07/16 10:52:18;;;;;;;4.97;2.55;;;24.80;28.40;;;;;;5008535;28;20018;-75
2022/07/16 10:54:50;;;;;;;6.72;2.30;;;24.80;28.50;;;;;;5008579;28;20029;-76
2022/07/16 10:57:16;;;;;;;4.57;2.40;;;24.80;28.30;;;;;;5008510;28;20018;-74
2022/07/16 10:59:46;;;;;;;5.88;2.33;;;24.70;28.10;;;;;;5008470;28;20663;-75
2022/07/16 11:02:17;;;;;;;3.83;1.95;;;24.70;28.70;;;;;;5008120;28;20064;-75
2022/07/16 11:04:45;;;;;;;5.97;2.47;;;25.00;26.90;;;;;;5008611;28;20022;-75
2022/07/16 11:07:19;;;;;;;5.55;2.30;;;25.60;24.80;;;;;;5008120;28;20026;-76
2022/07/16 11:09:48;;;;;;;5.20;2.50;;;25.70;24.60;;;;;;5008833;28;20374;-75
2022/07/16 11:12:14;;;;;;;5.53;2.33;;;25.50;26.60;;;;;;5008369;28;20053;-78
2022/07/16 11:14:41;;;;;;;2.83;2.10;;;25.50;24.70;;;;;;5008596;28;20022;-76
2022/07/16 11:17:07;;;;;;;6.93;2.22;;;25.50;23.70;;;;;;5008570;28;20056;-77
2022/07/16 11:19:41;;;;;;;4.60;2.55;;;25.60;23.80;;;;;;5008168;28;20018;-77
2022/07/16 11:22:07;;;;;;;4.30;2.30;;;25.90;23.30;;;;;;5008538;28;20065;-78
2022/07/16 11:24:33;;;;;;;4.30;2.20;;;26.30;21.70;;;;;;5008219;28;20426;-78
2022/07/16 11:27:01;;;;;;;2.33;1.60;;;26.40;21.30;;;;;;5007769;28;20034;-77
2022/07/16 11:29:27;;;;;;;4.68;2.22;;;26.50;21.10;;;;;;5008336;28;20022;-78
2022/07/16 11:31:55;;;;;;;8.70;2.33;;;26.80;22.80;;;;;;5008089;28;20068;-77
2022/07/16 11:34:22;;;;;;;6.22;2.35;;;26.40;23.60;;;;;;5011731;28;20522;-78
2022/07/16 11:36:51;;;;;;;6.50;2.28;;;26.30;24.20;;;;;;5011354;28;20497;-77
2022/07/16 11:39:19;;;;;;;3.85;2.22;;;26.50;24.80;;;;;;5011685;28;20044;-77
2022/07/16 11:41:48;;;;;;;3.83;2.20;;;26.80;24.90;;;;;;5015801;28;20121;-77
2022/07/16 11:44:26;;;;;;;4.25;2.20;;;27.00;23.30;;;;;;5011559;28;20030;-78
2022/07/16 11:46:54;;;;;;;4.90;2.15;;;27.10;23.80;;;;;;5011439;28;20159;-77
2022/07/16 11:49:38;;;;;;;5.15;2.30;;;27.10;22.50;;;;;;5011162;28;20491;-77
2022/07/16 11:52:06;;;;;;;3.70;1.75;;;26.90;21.80;;;;;;5011461;28;20026;-77
2022/07/16 11:54:36;;;;;;;6.32;2.33;;;26.90;22.60;;;;;;5011506;28;20033;-78
2022/07/16 11:57:02;;;;;;;4.43;2.20;;;27.10;23.90;;;;;;5010914;28;20030;-76
2022/07/16 11:59:30;;;;;;;3.13;2.22;;;27.40;22.30;;;;;;5011343;28;20377;-79
2022/07/16 12:02:18;;;;;;;2.28;1.80;;;27.70;20.00;;;;;;5010958;28;20117;-78
2022/07/16 12:04:47;;;;;;;5.22;2.00;;;27.80;20.40;;;;;;5010934;28;20025;-77
2022/07/16 12:07:27;;;;;;;4.75;2.03;;;27.80;21.40;;;;;;5011041;28;20021;-77
2022/07/16 12:09:54;;;;;;;2.45;1.60;;;27.80;21.60;;;;;;5011140;28;20025;-78
2022/07/16 12:12:29;;;;;;;4.35;2.08;;;28.10;21.00;;;;;;5010504;28;20478;-78
2022/07/16 12:15:00;;;;;;;3.40;1.95;;;28.30;20.90;;;;;;5010621;28;20117;-77
2022/07/16 12:17:31;;;;;;;3.10;2.08;;;28.40;21.90;;;;;;5011108;28;20419;-77
2022/07/16 12:20:17;;;;;;;3.00;2.00;;;28.70;21.60;;;;;;5011124;28;20379;-77
2022/07/16 12:22:51;;;;;;;2.13;1.52;;;29.00;20.40;;;;;;5010698;28;20034;-76
2022/07/16 12:25:23;;;;;;;7.15;2.17;;;29.00;20.00;;;;;;5012086;28;20030;-75
2022/07/16 12:27:54;;;;;;;6.15;2.10;;;28.60;19.50;;;;;;5010924;28;20033;-75
2022/07/16 12:30:30;;;;;;;5.60;2.22;;;28.10;20.00;;;;;;5010657;28;20026;-78
2022/07/16 12:32:55;;;;;;;2.55;1.70;;;28.20;20.20;;;;;;5010843;28;20053;-78
2022/07/16 12:35:50;;;;;;;4.28;1.80;;;28.40;20.30;;;;;;5010792;28;20022;-80
2022/07/16 12:38:40;;;;;;;3.90;1.90;;;28.80;20.00;;;;;;5010836;28;20077;-78
2022/07/16 12:41:12;;;;;;;4.70;2.30;;;29.00;20.10;;;;;;5010171;28;20029;-78
2022/07/16 12:43:40;;;;;;;4.85;2.00;;;29.20;20.00;;;;;;5010194;28;20030;-78
2022/07/16 12:46:07;;;;;;;6.53;2.70;;;29.30;20.10;;;;;;5010604;28;20026;-78
2022/07/16 12:48:43;;;;;;;2.85;1.90;;;29.40;20.40;;;;;;5010274;28;20030;-79
2022/07/16 12:51:12;;;;;;;3.70;2.15;;;29.40;20.20;;;;;;5010205;28;20026;-78
2022/07/16 12:53:38;;;;;;;2.25;1.77;;;29.30;19.70;;;;;;5011487;28;20082;-78